createdAt,value
2018-02-24T00:01:36.910Z,89.30
2018-02-24T00:04:05.333Z,84.90
2018-02-24T00:06:34.091Z,88.30
2018-02-24T00:09:02.864Z,85.70
2018-02-24T00:11:32.379Z,90.10
2018-02-24T00:14:00.955Z,90.10
2018-02-24T00:16:30.472Z,90.00
2018-02-24T00:18:59.234Z,90.00
2018-02-24T00:21:28.766Z,89.70
2018-02-24T00:23:57.525Z,90.00
2018-02-24T00:26:26.274Z,91.30
2018-02-24T00:28:55.040Z,87.40
2018-02-24T00:31:24.007Z,91.00
2018-02-24T00:33:53.536Z,89.20
2018-02-24T00:36:22.288Z,89.10
2018-02-24T00:38:51.045Z,92.20
2018-02-24T00:41:19.620Z,90.50
2018-02-24T00:43:48.619Z,91.70
2018-02-24T00:46:17.200Z,94.00
2018-02-24T00:48:45.784Z,93.90
2018-02-24T00:51:14.343Z,93.20
2018-02-24T00:53:42.914Z,93.10
2018-02-24T00:56:13.248Z,91.00
2018-02-24T00:58:41.999Z,91.00
2018-02-24T01:01:10.759Z,92.40
2018-02-24T01:03:39.184Z,91.00
2018-02-24T01:06:08.737Z,94.00
2018-02-24T01:08:37.506Z,93.90
2018-02-24T01:11:06.268Z,94.40
2018-02-24T01:13:35.803Z,94.70
2018-02-24T01:16:04.568Z,94.70
2018-02-24T01:18:34.092Z,95.50
2018-02-24T01:21:02.687Z,95.40
2018-02-24T01:23:31.264Z,94.20
2018-02-24T01:26:00.027Z,93.10
2018-02-24T01:28:29.563Z,94.90
2018-02-24T01:30:58.325Z,94.90
2018-02-24T01:33:27.860Z,95.50
2018-02-24T01:35:56.621Z,95.50
2018-02-24T01:38:26.147Z,94.90
2018-02-24T01:40:54.905Z,94.80
2018-02-24T01:43:23.666Z,94.80
2018-02-24T01:45:52.426Z,92.00
2018-02-24T01:48:21.189Z,92.40
2018-02-24T01:50:50.708Z,92.50
2018-02-24T01:53:20.227Z,95.40
2018-02-24T01:55:48.993Z,95.30
2018-02-24T01:58:18.520Z,95.90
2018-02-24T02:00:46.958Z,95.90
2018-02-24T02:03:15.724Z,94.50
2018-02-24T02:05:44.489Z,94.10
2018-02-24T02:08:12.908Z,95.30
2018-02-24T02:10:41.682Z,92.50
2018-02-24T02:13:10.450Z,94.70
2018-02-24T02:15:39.216Z,92.40
2018-02-24T02:18:07.644Z,93.60
2018-02-24T02:20:36.417Z,92.60
2018-02-24T02:23:05.185Z,93.10
2018-02-24T02:25:33.945Z,94.20
2018-02-24T02:28:03.489Z,94.60
2018-02-24T02:30:32.262Z,94.60
2018-02-24T02:33:01.013Z,94.50
2018-02-24T02:35:29.768Z,95.50
2018-02-24T02:37:58.533Z,97.60
2018-02-24T02:40:26.987Z,94.60
2018-02-24T02:42:56.529Z,95.50
2018-02-24T02:45:25.294Z,95.50
2018-02-24T02:47:54.051Z,95.80
2018-02-24T02:50:22.816Z,96.40
2018-02-24T02:52:51.590Z,96.00
2018-02-24T02:55:20.357Z,97.50
2018-02-24T02:57:49.115Z,95.70
2018-02-24T03:00:17.875Z,97.40
2018-02-24T03:02:46.292Z,95.80
2018-02-24T03:05:15.488Z,95.80
2018-02-24T03:07:44.247Z,95.80
2018-02-24T03:10:13.067Z,96.60
2018-02-24T03:12:41.835Z,96.60
2018-02-24T03:15:10.600Z,97.50
2018-02-24T03:17:39.357Z,97.40
2018-02-24T03:20:08.121Z,97.70
2018-02-24T03:22:36.883Z,97.30
2018-02-24T03:25:05.640Z,97.40
2018-02-24T03:27:34.063Z,97.80
2018-02-24T03:30:02.830Z,97.50
2018-02-24T03:32:31.274Z,97.80
2018-02-24T03:35:00.040Z,98.10
2018-02-24T03:37:29.560Z,98.70
2018-02-24T03:39:59.078Z,98.80
2018-02-24T03:42:27.826Z,98.70
2018-02-24T03:44:56.398Z,99.00
2018-02-24T03:47:25.151Z,99.90
2018-02-24T03:49:53.726Z,99.80
2018-02-24T03:52:22.490Z,98.30
2018-02-24T03:54:52.020Z,98.00
2018-02-24T03:57:20.785Z,97.90
2018-02-24T03:59:50.312Z,98.00
2018-02-24T04:02:19.064Z,97.90
2018-02-24T04:04:47.636Z,97.70
2018-02-24T04:07:16.404Z,97.80
2018-02-24T04:09:45.164Z,99.20
2018-02-24T04:12:13.931Z,97.90
2018-02-24T04:14:43.454Z,97.70
2018-02-24T04:17:13.028Z,97.70
2018-02-24T04:19:41.791Z,97.60
2018-02-24T04:22:10.578Z,98.40
2018-02-24T04:24:39.335Z,99.20
2018-02-24T04:27:08.085Z,99.00
2018-02-24T04:29:36.855Z,98.60
2018-02-24T04:32:05.599Z,98.00
2018-02-24T04:34:34.347Z,97.50
2018-02-24T04:37:03.105Z,97.30
2018-02-24T04:39:31.856Z,96.90
2018-02-24T04:42:01.376Z,97.30
2018-02-24T04:44:30.174Z,97.30
2018-02-24T04:46:59.864Z,97.30
2018-02-24T04:49:28.726Z,97.30
2018-02-24T04:51:57.495Z,97.50
2018-02-24T04:54:26.248Z,97.10
2018-02-24T04:56:55.013Z,97.50
2018-02-24T04:59:23.783Z,97.10
2018-02-24T05:01:52.551Z,97.20
2018-02-24T05:04:21.320Z,97.30
2018-02-24T05:06:50.072Z,97.40
2018-02-24T05:09:18.843Z,96.70
2018-02-24T05:11:48.376Z,96.50
2018-02-24T05:14:17.135Z,96.50
2018-02-24T05:16:45.560Z,97.00
2018-02-24T05:19:14.404Z,97.00
2018-02-24T05:21:43.164Z,97.50
2018-02-24T05:24:11.922Z,97.60
2018-02-24T05:26:40.372Z,97.80
2018-02-24T05:29:09.911Z,97.50
2018-02-24T05:31:38.667Z,97.50
2018-02-24T05:34:08.188Z,98.00
2018-02-24T05:36:37.718Z,97.40
2018-02-24T05:39:06.830Z,97.30
2018-02-24T05:41:35.591Z,96.50
2018-02-24T05:44:04.347Z,97.60
2018-02-24T05:46:33.108Z,97.40
2018-02-24T05:49:01.869Z,96.80
2018-02-24T05:51:30.630Z,98.40
2018-02-24T05:54:00.148Z,98.90
2018-02-24T05:56:28.909Z,98.80
2018-02-24T05:58:57.671Z,99.00
2018-02-24T06:01:26.434Z,98.60
2018-02-24T06:03:55.188Z,98.20
2018-02-24T06:06:24.708Z,96.50
2018-02-24T06:08:53.459Z,96.50
2018-02-24T06:11:22.231Z,98.10
2018-02-24T06:13:50.975Z,98.80
2018-02-24T06:16:19.889Z,98.30
2018-02-24T06:18:48.655Z,99.10
2018-02-24T06:21:17.558Z,98.40
2018-02-24T06:23:46.489Z,96.50
2018-02-24T06:26:15.057Z,97.20
2018-02-24T06:28:43.827Z,98.10
2018-02-24T06:31:12.585Z,96.80
2018-02-24T06:33:41.775Z,97.40
2018-02-24T06:36:10.348Z,97.30
2018-02-24T06:38:38.917Z,96.90
2018-02-24T06:41:07.886Z,98.00
2018-02-24T06:43:36.655Z,98.60
2018-02-24T06:46:05.419Z,99.20
2018-02-24T06:48:34.947Z,98.40
2018-02-24T06:51:05.296Z,98.30
2018-02-24T06:53:34.058Z,98.80
2018-02-24T06:56:02.822Z,99.20
2018-02-24T06:58:31.252Z,99.00
2018-02-24T07:01:00.035Z,96.90
2018-02-24T07:03:28.817Z,98.00
2018-02-24T07:05:57.591Z,98.10
2018-02-24T07:08:26.164Z,98.40
2018-02-24T07:10:55.710Z,99.00
2018-02-24T07:13:24.472Z,99.00
2018-02-24T07:15:53.569Z,97.10
2018-02-24T07:18:22.334Z,96.70
2018-02-24T07:20:51.300Z,98.70
2018-02-24T07:23:20.062Z,98.20
2018-02-24T07:25:48.499Z,97.50
2018-02-24T07:28:18.034Z,97.70
2018-02-24T07:30:46.800Z,97.60
2018-02-24T07:33:16.327Z,97.50
2018-02-24T07:35:45.093Z,97.50
2018-02-24T07:38:13.860Z,99.30
2018-02-24T07:40:42.623Z,98.10
2018-02-24T07:43:11.412Z,98.10
2018-02-24T07:45:39.994Z,98.40
2018-02-24T07:48:09.564Z,99.30
2018-02-24T07:50:39.093Z,99.20
2018-02-24T07:53:07.862Z,99.20
2018-02-24T07:55:36.628Z,99.90
2018-02-24T07:58:05.402Z,99.50
2018-02-24T08:00:34.174Z,99.20
2018-02-24T08:03:02.941Z,96.90
2018-02-24T08:05:31.698Z,96.20
2018-02-24T08:08:01.360Z,96.00
2018-02-24T08:10:30.121Z,96.00
2018-02-24T08:12:58.882Z,96.20
2018-02-24T08:15:28.411Z,97.00
2018-02-24T08:17:56.985Z,97.10
2018-02-24T08:20:26.515Z,96.60
2018-02-24T08:22:55.287Z,96.50
2018-02-24T08:25:24.050Z,96.00
2018-02-24T08:27:52.476Z,97.00
2018-02-24T08:30:21.241Z,96.50
2018-02-24T08:32:50.027Z,96.50
2018-02-24T08:35:18.956Z,95.20
2018-02-24T08:37:47.712Z,94.60
2018-02-24T08:40:16.473Z,93.30
2018-02-24T08:42:45.228Z,92.30
2018-02-24T08:45:13.988Z,90.90
2018-02-24T08:47:42.748Z,88.20
2018-02-24T08:50:12.268Z,83.70
2018-02-24T08:52:41.882Z,79.60
2018-02-24T08:55:10.650Z,79.50
2018-02-24T08:57:40.176Z,74.10
2018-02-24T09:00:08.280Z,74.10
2018-02-24T09:02:37.048Z,73.30
2018-02-24T09:05:05.803Z,72.60
2018-02-24T09:07:35.448Z,73.30
2018-02-24T09:10:03.876Z,78.80
2018-02-24T09:12:32.639Z,99.90
2018-02-24T09:15:01.463Z,99.90
2018-02-24T09:17:30.211Z,99.90
2018-02-24T09:19:58.966Z,70.10
2018-02-24T09:22:28.487Z,82.90
2018-02-24T09:25:16.792Z,82.90
2018-02-24T09:27:45.572Z,73.80
2018-02-24T09:30:15.209Z,66.50
2018-02-24T09:32:47.998Z,69.40
2018-02-24T09:35:17.532Z,64.90
2018-02-24T09:37:46.303Z,64.40
2018-02-24T09:40:15.684Z,63.70
2018-02-24T09:42:44.439Z,63.60
2018-02-24T09:45:13.635Z,63.50
2018-02-24T09:47:44.368Z,61.10
2018-02-24T09:50:13.653Z,58.40
2018-02-24T09:52:55.537Z,58.50
2018-02-24T09:55:37.289Z,58.50
2018-02-24T09:58:06.153Z,57.70
2018-02-24T10:00:35.034Z,56.30
2018-02-24T10:03:03.608Z,54.70
2018-02-24T10:05:32.345Z,52.20
2018-02-24T10:08:21.957Z,50.80
2018-02-24T10:10:51.026Z,51.10
2018-02-24T10:13:19.767Z,49.90
2018-02-24T10:15:48.518Z,49.80
2018-02-24T10:18:18.137Z,48.60
2018-02-24T10:20:47.644Z,47.20
2018-02-24T10:23:16.402Z,47.10
2018-02-24T10:25:45.141Z,47.10
2018-02-24T10:28:13.945Z,46.60
2018-02-24T10:30:43.453Z,46.10
2018-02-24T10:33:12.188Z,46.00
2018-02-24T10:35:41.695Z,45.70
2018-02-24T10:38:11.211Z,44.50
2018-02-24T10:40:40.402Z,43.80
2018-02-24T10:43:09.917Z,42.70
2018-02-24T10:45:39.432Z,41.60
2018-02-24T10:48:08.189Z,41.50
2018-02-24T10:50:36.936Z,39.20
2018-02-24T10:53:05.011Z,38.50
2018-02-24T10:55:33.753Z,39.00
2018-02-24T10:58:03.265Z,39.10
2018-02-24T11:00:32.771Z,38.90
2018-02-24T11:03:02.284Z,37.70
2018-02-24T11:05:31.043Z,37.70
2018-02-24T11:07:59.789Z,37.50
2018-02-24T11:10:29.295Z,36.50
2018-02-24T11:12:58.049Z,36.50
2018-02-24T11:15:26.806Z,35.90
2018-02-24T11:17:56.349Z,35.80
2018-02-24T11:20:25.863Z,36.10
2018-02-24T11:22:54.649Z,36.00
2018-02-24T11:25:23.546Z,36.80
2018-02-24T11:27:52.300Z,36.50
2018-02-24T11:30:20.859Z,35.90
2018-02-24T11:32:49.608Z,35.60
2018-02-24T11:35:18.354Z,36.00
2018-02-24T11:37:47.091Z,35.20
2018-02-24T11:40:15.840Z,35.90
2018-02-24T11:42:44.598Z,35.80
2018-02-24T11:45:13.355Z,35.80
2018-02-24T11:47:42.867Z,35.60
2018-02-24T11:50:11.617Z,32.20
2018-02-24T11:52:40.383Z,32.60
2018-02-24T11:55:09.126Z,32.70
2018-02-24T11:57:37.880Z,32.30
2018-02-24T12:00:06.620Z,32.20
2018-02-24T12:02:35.359Z,31.60
2018-02-24T12:05:04.864Z,31.50
2018-02-24T12:07:33.604Z,31.50
2018-02-24T12:10:02.165Z,32.70
2018-02-24T12:12:32.553Z,31.90
2018-02-24T12:15:01.304Z,32.20
2018-02-24T12:17:30.608Z,32.20
2018-02-24T12:19:59.354Z,31.50
2018-02-24T12:22:28.866Z,32.30
2018-02-24T12:24:58.748Z,32.40
2018-02-24T12:27:27.532Z,32.80
2018-02-24T12:29:56.306Z,33.00
2018-02-24T12:32:25.066Z,32.20
2018-02-24T12:34:53.824Z,32.60
2018-02-24T12:37:23.679Z,34.10
2018-02-24T12:39:52.429Z,34.10
2018-02-24T12:42:21.952Z,34.50
2018-02-24T12:44:50.523Z,34.40
2018-02-24T12:47:19.856Z,34.50
2018-02-24T12:49:48.435Z,34.50
2018-02-24T12:52:17.222Z,33.60
2018-02-24T12:54:45.971Z,34.00
2018-02-24T12:57:15.484Z,35.00
2018-02-24T12:59:44.991Z,34.90
2018-02-24T13:02:14.504Z,35.20
2018-02-24T13:04:44.026Z,36.20
2018-02-24T13:07:12.766Z,36.20
2018-02-24T13:09:41.499Z,36.90
2018-02-24T13:12:10.244Z,36.50
2018-02-24T13:14:38.997Z,35.30
2018-02-24T13:17:07.404Z,36.00
2018-02-24T13:19:36.144Z,36.50
2018-02-24T13:22:04.881Z,37.40
2018-02-24T13:24:33.623Z,37.60
2018-02-24T13:27:02.380Z,38.10
2018-02-24T13:29:31.137Z,38.70
2018-02-24T13:31:59.708Z,38.40
2018-02-24T13:34:28.459Z,38.10
2018-02-24T13:36:57.387Z,37.50
2018-02-24T13:39:26.383Z,37.20
2018-02-24T13:41:55.890Z,36.40
2018-02-24T13:44:24.465Z,36.40
2018-02-24T13:46:53.044Z,36.30
2018-02-24T13:49:21.795Z,35.60
2018-02-24T13:51:51.436Z,37.00
2018-02-24T13:54:20.188Z,36.80
2018-02-24T13:56:49.024Z,36.70
2018-02-24T13:59:17.780Z,36.80
2018-02-24T14:01:48.707Z,36.30
2018-02-24T14:04:18.357Z,36.30
2018-02-24T14:12:29.573Z,37.50
2018-02-24T14:14:58.947Z,38.60
2018-02-24T14:17:28.450Z,39.00
2018-02-24T14:19:57.960Z,38.90
2018-02-24T14:22:27.513Z,39.30
2018-02-24T14:24:57.192Z,39.20
2018-02-24T14:27:26.700Z,39.30
2018-02-24T14:29:55.459Z,39.40
2018-02-24T14:32:24.228Z,38.70
2018-02-24T14:34:52.988Z,38.30
2018-02-24T14:37:21.748Z,38.00
2018-02-24T14:39:50.521Z,38.20
2018-02-24T14:42:19.264Z,99.90
2018-02-24T14:44:48.040Z,69.50
2018-02-24T14:58:42.796Z,36.30
2018-02-24T15:01:12.329Z,36.60
2018-02-24T15:03:41.079Z,36.50
2018-02-24T15:06:10.406Z,35.50
2018-02-24T15:08:38.978Z,35.40
2018-02-24T15:11:08.490Z,34.50
2018-02-24T15:13:37.244Z,34.50
2018-02-24T15:18:39.171Z,34.80
2018-02-24T15:21:09.003Z,33.90
2018-02-24T15:23:37.779Z,33.00
2018-02-24T15:26:06.966Z,34.00
2018-02-24T15:28:39.746Z,33.10
2018-02-24T15:31:08.517Z,31.70
2018-02-24T15:33:38.426Z,31.30
2018-02-24T15:36:07.834Z,28.90
2018-02-24T15:38:40.774Z,29.30
2018-02-24T15:44:02.905Z,29.80
2018-02-24T15:46:33.228Z,29.80
2018-02-24T15:49:02.127Z,30.00
2018-02-24T15:51:30.692Z,31.00
2018-02-24T15:53:59.473Z,31.80
2018-02-24T15:56:29.851Z,33.40
2018-02-24T15:58:59.533Z,33.60
2018-02-24T16:01:28.297Z,33.50
2018-02-24T16:03:57.041Z,34.00
2018-02-24T16:06:25.815Z,34.80
2018-02-24T16:08:54.576Z,35.40
2018-02-24T16:11:23.311Z,35.70
2018-02-24T16:13:52.072Z,35.90
2018-02-24T16:16:21.120Z,36.20
2018-02-24T16:18:50.059Z,36.20
2018-02-24T16:21:18.833Z,36.60
2018-02-24T16:23:47.608Z,36.80
2018-02-24T16:26:17.149Z,37.30
2018-02-24T16:28:47.493Z,37.30
2018-02-24T16:31:16.079Z,37.70
2018-02-24T16:33:44.859Z,37.80
2018-02-24T16:36:14.273Z,37.80
2018-02-24T16:38:43.045Z,37.60
2018-02-24T16:41:11.804Z,37.40
2018-02-24T16:43:40.725Z,37.60
2018-02-24T16:46:09.492Z,38.00
2018-02-24T16:48:38.812Z,38.30
2018-02-24T16:51:07.576Z,38.60
2018-02-24T16:53:36.349Z,39.20
2018-02-24T16:56:05.889Z,40.00
2018-02-24T16:58:35.454Z,40.10
2018-02-24T17:01:05.825Z,41.30
2018-02-24T17:03:34.587Z,41.30
2018-02-24T17:06:04.290Z,42.10
2018-02-24T17:08:33.841Z,47.20
2018-02-24T17:11:03.820Z,50.00
2018-02-24T17:13:38.120Z,60.60
2018-02-24T17:16:08.282Z,49.40
2018-02-24T17:18:37.653Z,49.30
2018-02-24T17:21:06.527Z,45.30
2018-02-24T17:23:36.126Z,45.00
2018-02-24T17:26:06.722Z,43.80
2018-02-24T17:28:36.304Z,43.70
2018-02-24T17:31:05.076Z,44.60
2018-02-24T17:33:34.613Z,43.60
2018-02-24T17:36:03.380Z,43.60
2018-02-24T17:38:32.728Z,42.90
2018-02-24T17:41:01.488Z,42.90
2018-02-24T17:43:30.259Z,43.20
2018-02-24T17:45:59.031Z,43.50
2018-02-24T17:48:29.081Z,43.50
2018-02-24T17:50:57.852Z,43.50
2018-02-24T17:53:31.311Z,44.40
2018-02-24T17:56:00.407Z,43.80
2018-02-24T17:58:29.193Z,43.90
2018-02-24T18:00:57.980Z,44.30
2018-02-24T18:03:28.051Z,44.20
2018-02-24T18:05:56.822Z,44.50
2018-02-24T18:08:26.369Z,45.00
2018-02-24T18:10:55.142Z,45.00
2018-02-24T18:13:24.037Z,45.30
2018-02-24T18:15:52.821Z,45.20
2018-02-24T18:18:22.205Z,45.20
2018-02-24T18:20:52.298Z,46.10
2018-02-24T18:23:21.069Z,45.50
2018-02-24T18:25:49.843Z,45.60
2018-02-24T18:28:18.628Z,45.60
2018-02-24T18:30:47.405Z,46.00
2018-02-24T18:33:16.176Z,46.00
2018-02-24T18:35:45.705Z,46.00
2018-02-24T18:38:14.474Z,46.00
2018-02-24T18:40:44.016Z,46.10
2018-02-24T18:43:12.780Z,46.10
2018-02-24T18:45:41.598Z,46.00
2018-02-24T18:48:10.337Z,46.00
2018-02-24T18:50:39.105Z,45.90
2018-02-24T18:53:07.878Z,45.90
2018-02-24T18:55:36.641Z,46.20
2018-02-24T18:58:05.420Z,46.00
2018-02-24T19:00:34.978Z,46.30
2018-02-24T19:03:03.753Z,46.20
2018-02-24T19:05:32.537Z,46.20
2018-02-24T19:08:01.143Z,46.00
2018-02-24T19:10:29.742Z,45.90
2018-02-24T19:12:58.516Z,46.00
2018-02-24T19:15:27.316Z,46.40
2018-02-24T19:17:56.104Z,46.30
2018-02-24T19:20:24.692Z,46.30
2018-02-24T19:22:53.336Z,46.50
2018-02-24T19:25:21.942Z,46.70
2018-02-24T19:27:50.797Z,46.80
2018-02-24T19:30:19.384Z,47.10
2018-02-24T19:32:48.206Z,47.10
2018-02-24T19:35:16.966Z,46.90
2018-02-24T19:37:46.097Z,46.90
2018-02-24T19:40:15.378Z,47.00
2018-02-24T19:42:44.166Z,47.30
2018-02-24T19:45:12.938Z,47.20
2018-02-24T19:47:41.713Z,47.20
2018-02-24T19:50:10.484Z,47.30
2018-02-24T19:52:40.034Z,47.70
2018-02-24T19:55:08.809Z,47.70
2018-02-24T19:57:37.694Z,47.70
2018-02-24T20:00:06.470Z,47.80
2018-02-24T20:02:35.679Z,47.70
2018-02-24T20:05:04.570Z,48.00
2018-02-24T20:07:33.333Z,48.20
2018-02-24T20:10:02.896Z,48.50
2018-02-24T20:12:32.350Z,48.40
2018-02-24T20:15:00.933Z,48.50
2018-02-24T20:17:30.479Z,48.70
2018-02-24T20:19:59.272Z,48.70
2018-02-24T20:22:28.988Z,49.10
2018-02-24T20:24:57.771Z,49.20
2018-02-24T20:27:26.655Z,49.10
2018-02-24T20:29:55.665Z,49.10
2018-02-24T20:32:24.457Z,49.20
2018-02-24T20:34:53.220Z,49.60
2018-02-24T20:37:22.005Z,49.90
2018-02-24T20:39:52.122Z,50.00
2018-02-24T20:42:21.669Z,50.30
2018-02-24T20:44:50.454Z,50.30
2018-02-24T20:47:20.161Z,50.70
2018-02-24T20:49:48.932Z,51.10
2018-02-24T20:52:18.125Z,50.50
2018-02-24T20:54:46.704Z,51.00
2018-02-24T20:57:16.240Z,51.70
2018-02-24T20:59:44.687Z,51.70
2018-02-24T21:02:14.217Z,51.40
2018-02-24T21:04:42.989Z,51.40
2018-02-24T21:07:11.590Z,52.70
2018-02-24T21:09:40.369Z,53.40
2018-02-24T21:12:08.806Z,55.10
2018-02-24T21:14:37.580Z,55.00
2018-02-24T21:17:07.190Z,56.00
2018-02-24T21:19:35.964Z,55.20
2018-02-24T21:22:04.728Z,55.00
2018-02-24T21:24:33.503Z,56.60
2018-02-24T21:27:03.033Z,56.60
2018-02-24T21:29:31.815Z,56.40
2018-02-24T21:32:00.587Z,56.70
2018-02-24T21:34:29.366Z,56.40
2018-02-24T21:36:59.449Z,56.80
2018-02-24T21:39:28.226Z,56.70
2018-02-24T21:41:57.008Z,54.90
2018-02-24T21:44:25.800Z,56.40
2018-02-24T21:46:54.255Z,57.20
2018-02-24T21:49:23.035Z,56.80
2018-02-24T21:51:52.650Z,57.90
2018-02-24T21:54:21.411Z,57.90
2018-02-24T21:56:50.782Z,57.60
2018-02-24T21:59:19.556Z,57.50
2018-02-24T22:01:48.328Z,56.90
2018-02-24T22:04:16.912Z,57.90
2018-02-24T22:06:45.696Z,59.20
2018-02-24T22:09:14.528Z,58.80
2018-02-24T22:11:43.296Z,58.30
2018-02-24T22:14:13.068Z,58.30
2018-02-24T22:16:42.608Z,58.90
2018-02-24T22:19:11.384Z,58.80
2018-02-24T22:21:40.170Z,56.80
2018-02-24T22:24:08.941Z,57.30
2018-02-24T22:26:39.178Z,57.80
2018-02-24T22:29:07.947Z,57.80
2018-02-24T22:31:37.473Z,57.00
2018-02-24T22:34:06.243Z,56.60
2018-02-24T22:36:35.779Z,56.50
2018-02-24T22:39:03.892Z,56.50
2018-02-24T22:41:32.671Z,57.10
2018-02-24T22:44:01.431Z,56.90
2018-02-24T22:46:30.229Z,56.80
2018-02-24T22:49:01.585Z,56.70
2018-02-24T22:51:31.102Z,56.00
2018-02-24T22:53:59.853Z,56.00
2018-02-24T22:56:29.376Z,55.90
2018-02-24T22:58:58.137Z,55.90
2018-02-24T23:01:27.677Z,56.10
2018-02-24T23:03:57.208Z,56.90
2018-02-24T23:06:25.967Z,57.00
2018-02-24T23:08:54.724Z,56.30
2018-02-24T23:11:24.300Z,57.10
2018-02-24T23:13:53.059Z,57.10
2018-02-24T23:16:21.812Z,56.70
2018-02-24T23:18:51.336Z,57.40
2018-02-24T23:21:20.089Z,57.50
2018-02-24T23:23:48.848Z,56.80
2018-02-24T23:26:17.610Z,56.80
2018-02-24T23:28:46.399Z,56.80
2018-02-24T23:31:15.175Z,56.40
2018-02-24T23:33:44.690Z,57.20
2018-02-24T23:36:13.441Z,57.20
2018-02-24T23:38:42.193Z,57.10
2018-02-24T23:41:10.951Z,57.30
2018-02-24T23:43:40.457Z,57.10
2018-02-24T23:46:09.222Z,57.00
2018-02-24T23:48:37.795Z,56.80
2018-02-24T23:51:06.360Z,57.20
2018-02-24T23:53:34.931Z,57.10
2018-02-24T23:56:04.142Z,57.00
2018-02-24T23:58:32.575Z,56.80
